Time;durP1;ratioP1;P1;durP2;ratioP2;P2;SDS_P1;SDS_P2;PMS_P1;PMS_P2;Temp;Humidity;BMP_temperature;BMP_pressure;BME280_temperature;BME280_humidity;BME280_pressure;Samples;Min_cycle;Max_cycle;Signal;HPM_P1;HPM_P2
2024/03/12 00:01:26;;;;;;;50.20;39.30;;;;;;;7.36;100.00;98071.16;108909;1261;59064;-72
2024/03/12 00:03:54;;;;;;;48.20;38.70;;;;;;;7.35;100.00;98070.98;108921;1260;59070;-72
2024/03/12 00:06:21;;;;;;;56.30;41.30;;;;;;;7.34;100.00;98070.02;108892;1260;64728;-71
2024/03/12 00:08:48;;;;;;;52.90;39.10;;;;;;;7.33;100.00;98070.14;108900;1260;60102;-72
2024/03/12 00:11:14;;;;;;;47.50;40.00;;;;;;;7.31;100.00;98071.80;108900;1260;62882;-71
2024/03/12 00:13:41;;;;;;;50.40;39.40;;;;;;;7.32;100.00;98070.72;108911;1261;59002;-74
2024/03/12 00:16:07;;;;;;;51.20;40.10;;;;;;;7.32;100.00;98068.91;108912;1264;58989;-71
2024/03/12 00:18:34;;;;;;;50.90;41.30;;;;;;;7.33;100.00;98066.71;108871;1260;66066;-71
2024/03/12 00:21:01;;;;;;;47.80;40.30;;;;;;;7.34;100.00;98063.14;108750;1260;58998;-71
2024/03/12 00:23:28;;;;;;;50.40;39.90;;;;;;;7.34;100.00;98062.63;108887;1260;63792;-71
2024/03/12 00:25:56;;;;;;;45.00;37.90;;;;;;;7.32;100.00;98061.02;108856;1260;59294;-72
2024/03/12 00:28:23;;;;;;;52.10;39.30;;;;;;;7.31;100.00;98061.05;108914;1260;58998;-72
2024/03/12 00:30:49;;;;;;;50.70;39.90;;;;;;;7.33;100.00;98059.88;108886;1261;64574;-72
2024/03/12 00:33:16;;;;;;;49.60;39.20;;;;;;;7.34;100.00;98062.30;108919;1265;58970;-73
2024/03/12 00:35:44;;;;;;;49.00;39.20;;;;;;;7.33;100.00;98059.71;108912;1261;58998;-73
2024/03/12 00:38:10;;;;;;;53.40;39.90;;;;;;;7.32;100.00;98062.05;108880;1261;58971;-73
2024/03/12 00:40:38;;;;;;;47.30;37.30;;;;;;;7.32;100.00;98064.15;108921;1260;58985;-73
2024/03/12 00:43:06;;;;;;;50.20;38.80;;;;;;;7.31;100.00;98061.94;108919;1260;64559;-72
2024/03/12 00:45:41;;;;;;;51.40;40.30;;;;;;;7.31;100.00;98058.41;108918;1260;59836;-73
2024/03/12 00:48:12;;;;;;;48.40;38.70;;;;;;;7.30;100.00;98055.48;108723;1269;64047;-72
2024/03/12 00:50:39;;;;;;;46.30;36.80;;;;;;;7.30;100.00;98055.49;108865;1260;58951;-73
2024/03/12 00:53:07;;;;;;;48.30;36.90;;;;;;;7.29;100.00;98054.30;108939;1260;59033;-72
2024/03/12 00:55:35;;;;;;;48.30;38.10;;;;;;;7.29;100.00;98053.06;108912;1260;65781;-73
2024/03/12 00:58:09;;;;;;;45.90;38.10;;;;;;;7.28;100.00;98052.41;108900;1260;59035;-72
2024/03/12 01:00:36;;;;;;;48.80;38.90;;;;;;;7.27;100.00;98051.94;108903;1260;64087;-73
2024/03/12 01:03:05;;;;;;;45.90;36.00;;;;;;;7.27;100.00;98048.05;108719;1260;59013;-73
2024/03/12 01:05:35;;;;;;;48.20;38.10;;;;;;;7.26;100.00;98046.00;108924;1260;58957;-72
2024/03/12 01:08:03;;;;;;;;;;;;;;;7.25;100.00;98044.66;108949;1260;64874;-72
2024/03/12 01:10:31;;;;;;;43.50;34.90;;;;;;;7.23;100.00;98044.29;108894;1265;60129;-73
2024/03/12 01:13:00;;;;;;;49.60;37.10;;;;;;;7.22;100.00;98042.77;108891;1260;64131;-72
2024/03/12 01:15:28;;;;;;;47.40;35.30;;;;;;;7.21;100.00;98039.80;108907;1261;59311;-73
2024/03/12 01:17:59;;;;;;;46.60;35.90;;;;;;;7.21;100.00;98044.79;108937;1260;58976;-72
2024/03/12 01:20:26;;;;;;;47.40;36.60;;;;;;;7.21;100.00;98045.84;108918;1260;66106;-72
2024/03/12 01:22:54;;;;;;;49.50;35.90;;;;;;;7.20;100.00;98039.38;108936;1260;60101;-72
2024/03/12 01:25:21;;;;;;;49.90;35.20;;;;;;;7.19;100.00;98037.67;108896;1260;63752;-72
2024/03/12 01:27:49;;;;;;;49.80;34.60;;;;;;;7.18;100.00;98039.29;108896;1260;58971;-72
2024/03/12 01:30:16;;;;;;;50.70;36.60;;;;;;;7.18;100.00;98038.63;108928;1260;59086;-72
2024/03/12 01:32:47;;;;;;;45.70;32.80;;;;;;;7.15;100.00;98036.34;108910;1260;64530;-72
2024/03/12 01:35:14;;;;;;;49.80;35.70;;;;;;;7.13;100.00;98036.84;108921;1260;58970;-72
2024/03/12 01:37:41;;;;;;;49.60;35.40;;;;;;;7.13;100.00;98036.12;108920;1260;64075;-72
2024/03/12 01:40:19;;;;;;;51.10;35.80;;;;;;;7.13;100.00;98034.86;108879;1260;59009;-72
2024/03/12 01:42:51;;;;;;;51.70;35.20;;;;;;;7.12;100.00;98037.45;108918;1260;59104;-72
2024/03/12 01:45:24;;;;;;;49.30;35.10;;;;;;;7.11;100.00;98035.58;108910;1260;65736;-73
2024/03/12 01:47:58;;;;;;;50.80;36.50;;;;;;;7.10;100.00;98034.23;108882;1260;59344;-73
2024/03/12 01:50:27;;;;;;;51.40;36.10;;;;;;;7.09;100.00;98032.88;108891;1260;64097;-72
2024/03/12 01:52:56;;;;;;;53.00;35.10;;;;;;;7.08;100.00;98033.65;108699;1260;58992;-72
2024/03/12 01:55:23;;;;;;;49.70;33.90;;;;;;;7.08;100.00;98033.64;108930;1260;59104;-72
2024/03/12 01:57:51;;;;;;;49.60;32.20;;;;;;;7.07;100.00;98029.98;108926;1260;59012;-73
2024/03/12 02:00:19;;;;;;;56.40;35.80;;;;;;;7.04;100.00;98027.36;108948;1260;59041;-73
2024/03/12 02:02:50;;;;;;;56.40;35.20;;;;;;;7.02;100.00;98027.34;108918;1260;62436;-71
2024/03/12 02:05:16;;;;;;;51.30;34.40;;;;;;;7.01;100.00;98027.41;108881;1260;59158;-72
2024/03/12 02:07:47;;;;;;;53.50;34.60;;;;;;;7.00;100.00;98024.83;108915;1260;59578;-71
2024/03/12 02:10:14;;;;;;;52.90;35.00;;;;;;;6.99;100.00;98024.31;108725;1260;64525;-72
2024/03/12 02:12:44;;;;;;;52.60;36.30;;;;;;;7.00;100.00;98025.33;108910;1260;61393;-71
2024/03/12 02:15:12;;;;;;;49.70;34.10;;;;;;;7.01;100.00;98023.00;108913;1260;64894;-71
2024/03/12 02:17:39;;;;;;;59.10;35.10;;;;;;;7.00;100.00;98025.52;108896;1260;59334;-72
2024/03/12 02:20:09;;;;;;;48.60;32.60;;;;;;;6.99;100.00;98023.96;108906;1260;59115;-73
2024/03/12 02:22:36;;;;;;;55.40;34.50;;;;;;;7.00;100.00;98027.09;108757;1260;64547;-73
2024/03/12 02:25:04;;;;;;;51.30;32.80;;;;;;;7.00;100.00;98028.34;108917;1260;60497;-72
2024/03/12 02:27:31;;;;;;;48.40;32.90;;;;;;;7.00;100.00;98025.73;108874;1260;64025;-72
2024/03/12 02:29:57;;;;;;;51.40;34.10;;;;;;;6.99;100.00;98026.32;108891;1260;59021;-72
2024/03/12 02:32:24;;;;;;;55.90;35.70;;;;;;;6.99;100.00;98027.21;108890;1260;58986;-72
2024/03/12 02:34:51;;;;;;;52.40;35.40;;;;;;;7.00;100.00;98026.95;108925;1260;65757;-72
2024/03/12 02:37:21;;;;;;;55.50;36.60;;;;;;;7.02;100.00;98028.95;108923;1260;61198;-72
2024/03/12 02:39:47;;;;;;;58.10;38.30;;;;;;;7.03;100.00;98029.73;108855;1260;64791;-73
2024/03/12 02:42:14;;;;;;;55.30;35.80;;;;;;;7.04;100.00;98031.23;108888;1260;59007;-73
2024/03/12 02:44:40;;;;;;;56.00;37.70;;;;;;;7.06;100.00;98027.26;108936;1260;59305;-73
2024/03/12 02:47:06;;;;;;;59.00;37.50;;;;;;;7.07;100.00;98028.81;108909;1260;59032;-73
2024/03/12 02:49:36;;;;;;;54.20;35.70;;;;;;;7.06;100.00;98032.21;108925;1260;58986;-73
2024/03/12 02:52:03;;;;;;;55.70;36.20;;;;;;;7.04;100.00;98030.92;108901;1260;65175;-72
2024/03/12 02:54:30;;;;;;;56.40;35.30;;;;;;;7.02;100.00;98028.19;108901;1260;59424;-72
2024/03/12 02:56:56;;;;;;;50.20;34.20;;;;;;;7.01;100.00;98027.74;108915;1260;59001;-73
2024/03/12 02:59:27;;;;;;;56.30;36.20;;;;;;;6.99;100.00;98032.66;108875;1260;67245;-71
2024/03/12 03:01:56;;;;;;;52.60;34.80;;;;;;;6.97;100.00;98032.59;108947;1260;60127;-72
2024/03/12 03:04:23;;;;;;;52.30;33.90;;;;;;;6.95;100.00;98029.91;108927;1260;64035;-72
2024/03/12 03:06:52;;;;;;;50.80;34.00;;;;;;;6.95;100.00;98032.24;108898;1260;59248;-72
2024/03/12 03:09:20;;;;;;;50.70;33.20;;;;;;;6.94;100.00;98034.95;108915;1260;58877;-72
2024/03/12 03:11:47;;;;;;;52.10;34.80;;;;;;;6.94;100.00;98032.98;108879;1262;66123;-72
2024/03/12 03:14:13;;;;;;;57.70;35.50;;;;;;;6.95;100.00;98033.66;108914;1260;60178;-72
2024/03/12 03:16:40;;;;;;;49.90;33.80;;;;;;;6.94;100.00;98036.86;108914;1260;62514;-71
2024/03/12 03:19:08;;;;;;;55.90;36.00;;;;;;;6.94;100.00;98035.98;108889;1260;59019;-71
2024/03/12 03:21:34;;;;;;;50.70;34.20;;;;;;;6.94;100.00;98033.15;108927;1260;59062;-72
2024/03/12 03:24:01;;;;;;;51.50;34.20;;;;;;;6.95;100.00;98031.36;108927;1260;59385;-71
2024/03/12 03:26:28;;;;;;;50.00;33.50;;;;;;;6.93;100.00;98032.05;108883;1260;60169;-72
2024/03/12 03:28:54;;;;;;;50.70;33.70;;;;;;;6.90;100.00;98035.02;108875;1260;59054;-72
2024/03/12 03:31:21;;;;;;;50.00;33.00;;;;;;;6.88;100.00;98035.52;108889;1260;59048;-72
2024/03/12 03:33:48;;;;;;;46.60;32.80;;;;;;;6.87;100.00;98036.85;108888;1260;59060;-73
2024/03/12 03:36:14;;;;;;;48.70;32.20;;;;;;;6.85;100.00;98036.80;108949;1260;59139;-72
2024/03/12 03:38:41;;;;;;;47.90;30.90;;;;;;;6.84;100.00;98037.74;108931;1260;58975;-72
2024/03/12 03:41:08;;;;;;;47.80;31.70;;;;;;;6.82;100.00;98041.40;108745;1260;62797;-72
2024/03/12 03:43:34;;;;;;;48.10;32.90;;;;;;;6.81;100.00;98047.13;108876;1260;59659;-72
2024/03/12 03:46:03;;;;;;;43.80;28.50;;;;;;;6.79;100.00;98045.64;108918;1260;58972;-72
2024/03/12 03:48:30;;;;;;;47.10;33.60;;;;;;;6.78;100.00;98050.30;108752;1260;66091;-72
2024/03/12 03:50:56;;;;;;;49.60;33.10;;;;;;;6.77;100.00;98053.73;108916;1260;59414;-72
2024/03/12 03:53:22;;;;;;;47.10;32.80;;;;;;;6.76;100.00;98054.70;108888;1260;59072;-72
2024/03/12 03:55:49;;;;;;;49.00;33.40;;;;;;;6.75;100.00;98051.25;108916;1260;59293;-72
2024/03/12 03:58:18;;;;;;;52.20;35.20;;;;;;;6.75;100.00;98047.54;108923;1260;59251;-72
2024/03/12 04:00:44;;;;;;;49.10;33.20;;;;;;;6.75;100.00;98047.36;108899;1260;67312;-73
2024/03/12 04:03:11;;;;;;;49.50;31.90;;;;;;;6.74;100.00;98047.60;108919;1260;59953;-72
2024/03/12 04:05:38;;;;;;;51.50;33.00;;;;;;;6.73;100.00;98048.02;108930;1260;62852;-72
2024/03/12 04:08:06;;;;;;;47.90;32.40;;;;;;;6.72;100.00;98046.69;108887;1260;59311;-73
2024/03/12 04:10:32;;;;;;;48.40;33.20;;;;;;;6.71;100.00;98046.19;108898;1260;59130;-72
2024/03/12 04:12:59;;;;;;;50.80;32.90;;;;;;;6.72;100.00;98041.23;108908;1260;64612;-73
2024/03/12 04:15:28;;;;;;;46.70;31.10;;;;;;;6.72;100.00;98038.51;108933;1260;59072;-72
2024/03/12 04:17:55;;;;;;;46.60;33.40;;;;;;;6.73;100.00;98039.17;108878;1260;62547;-71
2024/03/12 04:20:21;;;;;;;52.30;34.70;;;;;;;6.74;100.00;98041.77;108924;1260;59051;-71
2024/03/12 04:22:49;;;;;;;52.10;33.30;;;;;;;6.74;100.00;98037.88;108900;1260;58919;-71
2024/03/12 04:25:15;;;;;;;49.90;34.40;;;;;;;6.75;100.00;98041.16;108928;1260;66108;-71
2024/03/12 04:27:42;;;;;;;48.60;34.70;;;;;;;6.77;100.00;98042.11;108905;1260;59067;-71
2024/03/12 04:30:10;;;;;;;49.40;33.10;;;;;;;6.78;100.00;98041.98;108912;1260;62901;-71
2024/03/12 04:32:38;;;;;;;50.70;32.30;;;;;;;6.79;100.00;98042.30;108897;1260;59438;-71
2024/03/12 04:35:05;;;;;;;47.30;31.90;;;;;;;6.80;100.00;98041.73;108905;1260;59232;-71
2024/03/12 04:37:32;;;;;;;45.30;31.70;;;;;;;6.81;100.00;98043.38;108904;1260;65796;-71
2024/03/12 04:40:11;;;;;;;44.90;31.60;;;;;;;6.83;100.00;98047.04;108920;1260;60200;-72
2024/03/12 04:42:38;;;;;;;49.30;33.00;;;;;;;6.85;100.00;98054.84;108896;1260;62855;-72
2024/03/12 04:45:06;;;;;;;54.50;36.20;;;;;;;6.86;100.00;98054.38;108916;1260;59074;-72
2024/03/12 04:47:35;;;;;;;52.70;35.70;;;;;;;6.88;100.00;98056.36;108908;1260;58912;-72
2024/03/12 04:50:02;;;;;;;51.70;37.00;;;;;;;6.89;100.00;98057.50;108778;1260;65718;-72
2024/03/12 04:52:29;;;;;;;53.10;36.10;;;;;;;6.91;100.00;98060.73;108925;1260;59865;-72
2024/03/12 04:54:56;;;;;;;52.60;35.00;;;;;;;6.92;100.00;98056.27;108906;1260;62526;-72
2024/03/12 04:57:23;;;;;;;49.20;33.90;;;;;;;6.93;100.00;98056.05;108895;1260;59062;-72
2024/03/12 04:59:49;;;;;;;56.90;37.30;;;;;;;6.94;100.00;98057.88;108918;1260;58837;-72
2024/03/12 05:02:16;;;;;;;52.40;35.10;;;;;;;6.95;100.00;98060.64;108933;1260;59450;-72
2024/03/12 05:04:42;;;;;;;51.10;33.50;;;;;;;6.97;100.00;98060.52;108786;1260;59336;-73
2024/03/12 05:07:09;;;;;;;51.80;34.50;;;;;;;6.98;100.00;98064.15;108889;1260;59059;-72
2024/03/12 05:09:35;;;;;;;47.60;32.20;;;;;;;6.98;100.00;98066.65;108916;1260;58935;-72
2024/03/12 05:12:02;;;;;;;46.60;30.20;;;;;;;6.97;100.00;98066.33;108919;1260;59089;-72
2024/03/12 05:14:28;;;;;;;51.50;32.20;;;;;;;6.97;100.00;98064.38;108928;1260;59055;-72
2024/03/12 05:16:56;;;;;;;47.30;31.70;;;;;;;6.97;100.00;98067.91;108924;1260;61312;-72
2024/03/12 05:19:24;;;;;;;41.10;29.40;;;;;;;6.97;100.00;98077.78;108896;1260;64105;-72
2024/03/12 05:21:50;;;;;;;47.70;31.70;;;;;;;6.97;100.00;98077.81;108737;1260;59439;-71
2024/03/12 05:24:17;;;;;;;48.40;33.80;;;;;;;6.99;100.00;98081.23;108953;1260;59473;-72
2024/03/12 05:26:44;;;;;;;49.70;32.90;;;;;;;7.00;100.00;98082.59;108916;1260;64853;-72
2024/03/12 05:29:12;;;;;;;46.70;31.10;;;;;;;7.01;100.00;98086.53;108894;1260;60181;-73
2024/03/12 05:31:38;;;;;;;49.00;33.10;;;;;;;7.03;100.00;98089.42;108740;1260;62932;-73
2024/03/12 05:34:29;;;;;;;45.80;31.40;;;;;;;7.04;100.00;98091.98;108907;1260;59273;-71
2024/03/12 05:37:05;;;;;;;49.20;33.30;;;;;;;7.06;100.00;98093.86;108775;1260;60019;-71
2024/03/12 05:39:47;;;;;;;42.40;28.30;;;;;;;7.06;100.00;98095.06;108899;1260;64696;-73
2024/03/12 05:50:28;;;;;;;47.60;30.50;;;;;;;7.13;100.00;98108.86;108942;1260;59049;-72
2024/03/12 05:52:56;;;;;;;47.50;29.80;;;;;;;7.14;100.00;98107.77;108918;1260;59605;-72
2024/03/12 05:55:22;;;;;;;44.00;30.00;;;;;;;7.15;100.00;98105.77;108945;1260;59053;-73
2024/03/12 05:57:49;;;;;;;48.00;29.80;;;;;;;7.16;100.00;98106.80;108913;1260;59086;-73
2024/03/12 06:00:16;;;;;;;46.60;29.80;;;;;;;7.17;100.00;98110.90;108897;1260;59448;-73
2024/03/12 06:02:42;;;;;;;47.40;30.00;;;;;;;7.18;100.00;98111.21;108927;1260;59275;-72
2024/03/12 06:05:12;;;;;;;50.30;31.90;;;;;;;7.19;100.00;98113.98;108939;1260;65754;-72
2024/03/12 06:07:48;;;;;;;43.00;29.20;;;;;;;7.20;100.00;98114.27;108907;1260;59259;-73
2024/03/12 06:10:16;;;;;;;49.00;30.20;;;;;;;7.23;100.00;98113.88;108907;1260;62879;-72
2024/03/12 06:12:43;;;;;;;43.50;29.00;;;;;;;7.25;100.00;98116.58;108919;1260;58996;-72
2024/03/12 06:15:09;;;;;;;45.20;28.50;;;;;;;7.26;100.00;98116.69;108902;1260;59121;-72
2024/03/12 06:17:36;;;;;;;42.30;27.20;;;;;;;7.28;100.00;98120.95;108917;1260;66172;-73
2024/03/12 06:20:05;;;;;;;42.50;27.90;;;;;;;7.30;100.00;98121.73;108936;1260;60213;-73
2024/03/12 06:22:32;;;;;;;43.80;29.60;;;;;;;7.32;100.00;98124.74;108882;1260;62869;-72
2024/03/12 06:25:00;;;;;;;43.10;28.20;;;;;;;7.37;100.00;98127.80;108911;1260;58965;-72
2024/03/12 06:27:27;;;;;;;44.00;31.70;;;;;;;7.41;100.00;98132.64;108909;1260;59020;-72
2024/03/12 06:29:53;;;;;;;45.60;32.40;;;;;;;7.47;100.00;98130.80;108925;1260;59127;-73
2024/03/12 06:32:20;;;;;;;38.90;26.90;;;;;;;7.53;100.00;98131.87;108940;1260;60140;-73
2024/03/12 06:34:48;;;;;;;38.50;27.00;;;;;;;7.55;100.00;98135.79;108897;1260;64581;-72
2024/03/12 06:37:15;;;;;;;40.60;28.80;;;;;;;7.57;100.00;98137.54;108901;1260;59110;-72
2024/03/12 06:39:42;;;;;;;37.10;28.10;;;;;;;7.62;100.00;98135.45;108907;1260;59248;-72
2024/03/12 06:42:12;;;;;;;37.30;25.70;;;;;;;7.66;100.00;98138.69;108898;1260;74736;-72
2024/03/12 06:44:40;;;;;;;;;;;;;;;7.69;100.00;98138.31;108637;1260;59230;-73
2024/03/12 06:47:07;;;;;;;34.40;24.00;;;;;;;7.71;100.00;98138.90;108911;1260;64233;-72
2024/03/12 06:49:33;;;;;;;40.70;28.20;;;;;;;7.74;100.00;98139.20;108909;1260;59162;-73
2024/03/12 06:52:00;;;;;;;36.50;25.70;;;;;;;7.79;100.00;98140.11;108883;1260;58916;-73
2024/03/12 06:54:27;;;;;;;35.70;25.30;;;;;;;7.82;100.00;98141.51;108943;1260;65902;-73
2024/03/12 06:56:55;;;;;;;36.20;24.70;;;;;;;7.85;100.00;98143.40;108923;1260;59980;-73
2024/03/12 06:59:21;;;;;;;34.60;26.30;;;;;;;7.86;100.00;98149.84;108927;1260;64076;-72
2024/03/12 07:01:53;;;;;;;37.50;27.70;;;;;;;7.90;100.00;98147.13;108894;1260;58996;-73
2024/03/12 07:04:34;;;;;;;35.90;26.70;;;;;;;7.95;100.00;98151.52;108924;1260;59060;-73
2024/03/12 07:07:05;;;;;;;33.60;23.70;;;;;;;7.99;100.00;98155.89;108917;1260;64835;-73
2024/03/12 07:09:35;;;;;;;35.60;25.20;;;;;;;7.98;100.00;98154.20;108912;1260;59006;-72
2024/03/12 07:12:04;;;;;;;;;;;;;;;7.98;100.00;98152.56;108901;1260;64071;-73
2024/03/12 07:14:32;;;;;;;37.30;27.00;;;;;;;7.98;100.00;98154.55;108905;1260;59005;-73
2024/03/12 07:16:59;;;;;;;38.10;28.00;;;;;;;7.96;100.00;98156.95;108917;1260;59004;-72
2024/03/12 07:19:26;;;;;;;42.30;30.50;;;;;;;7.97;100.00;98161.30;108930;1260;66083;-73
2024/03/12 07:21:55;;;;;;;37.90;29.60;;;;;;;8.00;100.00;98161.48;108925;1260;58999;-73
2024/03/12 07:24:23;;;;;;;41.70;30.30;;;;;;;8.02;100.00;98163.98;108925;1260;62856;-73
2024/03/12 07:26:49;;;;;;;43.30;31.40;;;;;;;8.02;100.00;98167.69;108891;1260;59291;-73
2024/03/12 07:29:15;;;;;;;42.20;33.90;;;;;;;8.02;100.00;98171.95;108737;1260;59039;-73
2024/03/12 07:31:42;;;;;;;44.80;34.40;;;;;;;8.03;100.00;98174.02;108936;1260;58936;-73
2024/03/12 07:34:08;;;;;;;37.90;29.20;;;;;;;8.06;100.00;98176.10;108914;1260;59039;-73
2024/03/12 07:36:35;;;;;;;43.20;31.40;;;;;;;8.10;100.00;98178.64;108897;1262;59103;-73
2024/03/12 07:39:08;;;;;;;40.50;32.00;;;;;;;8.15;100.00;98179.70;108706;1260;59027;-72
2024/03/12 07:41:35;;;;;;;37.00;29.30;;;;;;;8.21;100.00;98182.45;108909;1260;61319;-73
2024/03/12 07:44:02;;;;;;;33.70;27.90;;;;;;;8.21;100.00;98186.34;108933;1260;66097;-73
2024/03/12 07:46:28;;;;;;;37.10;31.20;;;;;;;8.24;100.00;98186.85;108929;1260;60195;-73
2024/03/12 07:48:56;;;;;;;32.10;24.90;;;;;;;8.28;100.00;98186.77;108898;1260;59021;-73
2024/03/12 07:51:22;;;;;;;31.00;24.00;;;;;;;8.31;100.00;98186.56;108897;1260;59960;-72
2024/03/12 07:53:49;;;;;;;31.20;23.30;;;;;;;8.30;100.00;98185.70;108913;1260;59071;-72
2024/03/12 07:56:16;;;;;;;27.60;20.70;;;;;;;8.30;100.00;98187.16;108941;1260;66294;-73
2024/03/12 07:58:46;;;;;;;36.60;27.70;;;;;;;8.30;100.00;98183.11;108923;1260;59527;-73
2024/03/12 08:01:14;;;;;;;39.20;30.50;;;;;;;8.30;100.00;98184.11;108923;1260;62909;-73
2024/03/12 08:03:41;;;;;;;37.90;28.10;;;;;;;8.32;100.00;98185.95;108909;1260;59043;-73
2024/03/12 08:06:08;;;;;;;40.50;30.50;;;;;;;8.34;100.00;98183.09;108938;1260;59012;-73
2024/03/12 08:08:34;;;;;;;41.30;30.00;;;;;;;8.36;100.00;98185.65;108747;1260;66028;-72
2024/03/12 08:11:04;;;;;;;37.10;27.50;;;;;;;8.36;100.00;98189.52;108923;1260;59012;-72
2024/03/12 08:13:31;;;;;;;42.40;29.90;;;;;;;8.35;100.00;98191.91;108888;1260;63868;-73
2024/03/12 08:15:58;;;;;;;54.80;42.40;;;;;;;8.34;100.00;98196.08;108948;1260;59194;-73
2024/03/12 08:18:25;;;;;;;54.20;39.30;;;;;;;8.32;100.00;98198.52;108944;1260;59011;-73
2024/03/12 08:20:52;;;;;;;64.40;50.40;;;;;;;8.31;100.00;98196.10;108931;1260;65313;-73
2024/03/12 08:23:19;;;;;;;56.70;44.40;;;;;;;8.30;100.00;98200.25;108962;1260;60214;-72
2024/03/12 08:25:46;;;;;;;66.60;54.60;;;;;;;8.26;100.00;98203.69;108964;1260;64141;-72
2024/03/12 08:28:14;;;;;;;46.60;34.10;;;;;;;8.23;100.00;98208.15;108698;1260;59010;-72
2024/03/12 08:30:40;;;;;;;50.80;37.30;;;;;;;8.21;100.00;98209.92;108879;1260;58967;-72
2024/03/12 08:33:07;;;;;;;51.20;39.70;;;;;;;8.20;100.00;98214.00;108942;1260;64868;-72
2024/03/12 08:35:33;;;;;;;48.20;33.20;;;;;;;8.21;100.00;98217.48;108897;1260;59869;-73
2024/03/12 08:37:59;;;;;;;46.70;32.10;;;;;;;8.22;100.00;98214.97;108899;1260;63764;-72
2024/03/12 08:40:26;;;;;;;42.20;29.50;;;;;;;8.21;100.00;98217.83;108905;1260;59060;-73
2024/03/12 08:42:52;;;;;;;46.30;33.40;;;;;;;8.22;100.00;98221.14;108927;1260;59068;-72
2024/03/12 08:45:21;;;;;;;50.10;33.40;;;;;;;8.24;100.00;98222.27;108924;1260;59125;-73
2024/03/12 08:47:48;;;;;;;42.40;28.40;;;;;;;8.26;100.00;98221.05;108938;1260;60198;-73
2024/03/12 08:50:14;;;;;;;36.80;28.30;;;;;;;8.27;100.00;98222.37;108895;1260;58993;-72
2024/03/12 08:52:42;;;;;;;41.00;27.80;;;;;;;8.29;100.00;98225.27;108913;1260;58981;-73
2024/03/12 08:55:09;;;;;;;40.30;26.90;;;;;;;8.31;100.00;98224.92;108904;1261;59038;-73
2024/03/12 08:57:35;;;;;;;41.90;28.70;;;;;;;8.35;100.00;98225.89;108937;1260;64557;-73
2024/03/12 09:00:05;;;;;;;34.80;26.20;;;;;;;8.39;100.00;98226.36;108960;1260;59308;-72
2024/03/12 09:02:31;;;;;;;36.00;28.50;;;;;;;8.44;100.00;98227.08;108707;1260;64423;-72
2024/03/12 09:04:58;;;;;;;32.70;25.80;;;;;;;8.50;100.00;98226.98;108916;1260;59231;-72
2024/03/12 09:07:24;;;;;;;39.60;29.00;;;;;;;8.57;100.00;98229.16;108938;1260;59016;-73
2024/03/12 09:09:51;;;;;;;32.70;25.00;;;;;;;8.65;100.00;98231.13;108914;1260;59267;-73
2024/03/12 09:12:18;;;;;;;32.50;25.80;;;;;;;8.71;100.00;98232.08;108946;1260;58999;-72
2024/03/12 09:14:45;;;;;;;32.00;24.30;;;;;;;8.75;100.00;98229.62;108925;1260;64104;-72
2024/03/12 09:17:12;;;;;;;32.40;23.00;;;;;;;8.78;100.00;98228.33;108890;1260;59197;-73
2024/03/12 09:19:38;;;;;;;29.60;23.70;;;;;;;8.81;100.00;98228.71;108936;1260;59065;-73
2024/03/12 09:22:05;;;;;;;34.70;24.90;;;;;;;8.83;100.00;98232.27;108910;1260;59089;-72
2024/03/12 09:24:31;;;;;;;34.60;25.40;;;;;;;8.86;100.00;98233.80;108776;1260;60687;-71
2024/03/12 09:26:58;;;;;;;32.40;24.20;;;;;;;8.89;100.00;98235.17;108925;1260;58994;-72
2024/03/12 09:29:24;;;;;;;41.30;29.50;;;;;;;8.92;100.00;98235.33;108903;1260;59049;-71
2024/03/12 09:31:51;;;;;;;33.70;22.90;;;;;;;8.94;100.00;98235.22;108921;1260;59349;-71
2024/03/12 09:34:18;;;;;;;29.30;21.10;;;;;;;8.93;100.00;98235.05;108947;1260;64902;-71
2024/03/12 09:36:44;;;;;;;31.00;23.30;;;;;;;8.93;100.00;98240.39;108912;1260;59251;-73
2024/03/12 09:39:11;;;;;;;47.90;36.50;;;;;;;8.93;100.00;98238.94;108927;1260;63741;-73
2024/03/12 09:41:41;;;;;;;43.00;34.10;;;;;;;8.94;100.00;98241.23;108915;1260;58967;-72
2024/03/12 09:44:11;;;;;;;40.00;32.00;;;;;;;8.95;100.00;98240.64;108544;1260;138876;-71
2024/03/12 09:46:39;;;;;;;40.20;31.20;;;;;;;8.96;100.00;98242.44;108826;1260;66045;-72
2024/03/12 09:49:07;;;;;;;35.50;26.60;;;;;;;8.99;100.00;98241.55;108918;1260;58972;-73
2024/03/12 09:51:34;;;;;;;34.90;25.00;;;;;;;9.01;100.00;98242.13;108921;1260;64187;-72
2024/03/12 09:54:03;;;;;;;38.00;26.20;;;;;;;9.03;100.00;98239.32;108911;1260;58999;-72
2024/03/12 09:56:33;;;;;;;41.00;29.20;;;;;;;9.06;100.00;98241.25;108921;1260;59078;-72
2024/03/12 09:59:00;;;;;;;41.50;29.00;;;;;;;9.09;100.00;98243.19;108925;1260;66023;-72
2024/03/12 10:01:28;;;;;;;42.90;29.80;;;;;;;9.07;100.00;98248.63;108902;1260;59951;-72
2024/03/12 10:03:55;;;;;;;48.30;33.30;;;;;;;9.11;100.00;98252.73;108887;1260;62836;-72
2024/03/12 10:06:22;;;;;;;44.70;31.60;;;;;;;9.17;100.00;98252.65;108905;1260;58985;-72
2024/03/12 10:08:56;;;;;;;44.50;30.20;;;;;;;9.22;100.00;98253.52;108944;1260;58992;-71
2024/03/12 10:11:23;;;;;;;42.60;30.10;;;;;;;9.26;100.00;98254.81;108875;1260;65531;-72
2024/03/12 10:13:56;;;;;;;49.20;33.30;;;;;;;9.31;100.00;98255.52;108924;1260;60210;-71
2024/03/12 10:16:24;;;;;;;55.40;38.50;;;;;;;9.37;100.00;98259.73;108875;1260;73653;-72
2024/03/12 10:19:06;;;;;;;60.20;39.90;;;;;;;9.40;100.00;98262.52;108890;1260;59138;-72
2024/03/12 10:21:33;;;;;;;68.30;45.30;;;;;;;9.44;100.00;98259.15;108927;1260;59420;-72
2024/03/12 10:24:14;;;;;;;65.30;43.00;;;;;;;9.46;100.00;98262.74;108929;1260;66331;-72
2024/03/12 10:26:42;;;;;;;54.00;35.70;;;;;;;9.47;100.00;98262.52;108946;1260;59062;-72
2024/03/12 10:29:11;;;;;;;52.90;36.90;;;;;;;9.45;100.00;98261.95;108910;1260;64047;-72
2024/03/12 10:31:43;;;;;;;34.70;25.50;;;;;;;9.42;100.00;98262.34;108906;1260;59099;-72
2024/03/12 10:34:17;;;;;;;36.80;25.60;;;;;;;9.32;100.00;98265.20;108928;1260;58980;-73
2024/03/12 10:36:45;;;;;;;33.30;25.40;;;;;;;9.21;100.00;98266.67;108775;1260;65827;-72
2024/03/12 10:39:12;;;;;;;35.80;25.70;;;;;;;9.17;100.00;98271.94;108920;1260;59068;-72
2024/03/12 10:41:43;;;;;;;36.90;26.80;;;;;;;9.19;100.00;98272.13;108876;1260;64034;-72
2024/03/12 10:44:11;;;;;;;37.70;26.90;;;;;;;9.24;100.00;98270.77;108911;1260;58962;-72
2024/03/12 10:46:43;;;;;;;36.40;27.90;;;;;;;9.24;100.00;98272.17;108915;1260;58877;-72
2024/03/12 10:49:12;;;;;;;38.50;29.50;;;;;;;9.25;100.00;98275.31;108920;1260;65736;-73
2024/03/12 10:51:40;;;;;;;38.90;29.50;;;;;;;9.25;100.00;98271.77;108934;1260;59152;-72
2024/03/12 10:54:13;;;;;;;34.70;25.80;;;;;;;9.27;100.00;98269.98;108946;1260;62794;-72
2024/03/12 10:56:43;;;;;;;39.30;29.50;;;;;;;9.29;100.00;98272.32;108910;1260;59285;-73
2024/03/12 10:59:10;;;;;;;40.70;30.20;;;;;;;9.30;100.00;98269.48;108931;1260;59011;-73
2024/03/12 11:01:39;;;;;;;39.00;28.60;;;;;;;9.32;100.00;98266.11;108906;1260;64976;-73
2024/03/12 11:04:08;;;;;;;36.70;26.80;;;;;;;9.34;100.00;98270.39;108943;1260;60257;-73
2024/03/12 11:06:39;;;;;;;37.20;26.80;;;;;;;9.34;100.00;98272.48;108914;1260;64066;-74
2024/03/12 11:09:11;;;;;;;34.30;25.50;;;;;;;9.34;100.00;98274.45;108923;1260;59033;-73
2024/03/12 11:11:39;;;;;;;36.30;27.50;;;;;;;9.36;100.00;98275.88;108942;1260;59074;-72
2024/03/12 11:14:07;;;;;;;36.80;26.80;;;;;;;9.37;100.00;98271.05;108930;1260;66076;-72
2024/03/12 11:16:35;;;;;;;36.20;27.20;;;;;;;9.37;100.00;98273.34;108901;1260;59089;-72
2024/03/12 11:19:22;;;;;;;35.00;25.70;;;;;;;9.35;100.00;98272.04;108913;1260;62743;-72
2024/03/12 11:21:51;;;;;;;36.70;28.20;;;;;;;9.35;100.00;98271.36;108759;1260;59036;-72